Time;durP1;ratioP1;P1;durP2;ratioP2;P2;SDS_P1;SDS_P2;PMS_P1;PMS_P2;Temp;Humidity;BMP_temperature;BMP_pressure;BME280_temperature;BME280_humidity;BME280_pressure;Samples;Min_cycle;Max_cycle;Signal;HPM_P1;HPM_P2
2023/08/04 00:03:27;;;;;;;10.25;8.45;;;;;;;;;;10174123;28;20042;-73
2023/08/04 00:08:24;;;;;;;10.10;8.32;;;;;;;;;;10232357;28;20049;-73
2023/08/04 00:13:20;;;;;;;11.07;9.75;;;;;;;;;;10193276;28;20108;-73
2023/08/04 00:18:20;;;;;;;11.52;9.52;;;;;;;;;;10239674;22;20045;-73
2023/08/04 00:23:16;;;;;;;16.50;10.48;;;;;;;;;;10193679;28;20074;-74
2023/08/04 00:28:13;;;;;;;12.93;10.70;;;;;;;;;;10187599;28;20051;-73
2023/08/04 00:33:09;;;;;;;14.63;10.82;;;;;;;;;;10161531;28;20620;-73
2023/08/04 00:38:05;;;;;;;15.70;11.88;;;;;;;;;;10203493;28;20058;-73
2023/08/04 00:43:02;;;;;;;11.00;10.10;;;;;;;;;;10159326;28;20079;-73
2023/08/04 00:47:59;;;;;;;10.70;9.57;;;;;;;;;;10158498;28;20065;-73
2023/08/04 00:52:58;;;;;;;12.02;9.98;;;;;;;;;;10158832;28;20042;-73
2023/08/04 00:57:55;;;;;;;12.77;10.77;;;;;;;;;;10237627;28;20103;-74
2023/08/04 01:02:51;;;;;;;11.02;9.98;;;;;;;;;;10207063;28;20074;-73
2023/08/04 01:07:52;;;;;;;15.25;10.70;;;;;;;;;;10233427;28;20050;-74
2023/08/04 01:13:04;;;;;;;12.73;11.40;;;;;;;;;;10197108;28;20058;-73
2023/08/04 01:18:04;;;;;;;11.98;10.63;;;;;;;;;;10156967;28;20054;-74
2023/08/04 01:23:00;;;;;;;14.75;11.50;;;;;;;;;;10191910;28;20062;-74
2023/08/04 01:27:58;;;;;;;11.75;10.55;;;;;;;;;;10225148;28;20053;-73
2023/08/04 01:32:54;;;;;;;12.13;11.02;;;;;;;;;;10179493;28;20065;-74
2023/08/04 01:44:14;;;;;;;14.18;10.70;;;;;;;;;;10072578;28;20532;-74
2023/08/04 01:49:26;;;;;;;12.88;10.95;;;;;;;;;;10099431;28;20099;-73
2023/08/04 01:54:47;;;;;;;13.40;12.05;;;;;;;;;;10111310;28;20047;-74
2023/08/04 01:59:43;;;;;;;13.90;12.52;;;;;;;;;;10111493;28;20058;-73
2023/08/04 02:04:39;;;;;;;14.65;12.15;;;;;;;;;;10111189;28;20078;-73
2023/08/04 02:09:35;;;;;;;14.90;11.18;;;;;;;;;;10110747;28;20077;-74
2023/08/04 02:14:33;;;;;;;14.73;11.57;;;;;;;;;;10110729;28;20114;-73
2023/08/04 02:19:29;;;;;;;12.27;11.00;;;;;;;;;;10192386;28;20437;-73
2023/08/04 02:24:26;;;;;;;12.40;11.13;;;;;;;;;;10234911;28;20060;-73
2023/08/04 02:29:22;;;;;;;16.58;12.00;;;;;;;;;;10230092;28;20500;-73
2023/08/04 02:34:18;;;;;;;13.30;12.02;;;;;;;;;;10205721;28;20049;-73
2023/08/04 02:39:15;;;;;;;15.52;11.52;;;;;;;;;;10234244;28;20050;-74
2023/08/04 02:44:14;;;;;;;14.43;12.60;;;;;;;;;;10234088;28;20061;-73
2023/08/04 02:49:10;;;;;;;14.80;13.40;;;;;;;;;;10222399;28;20083;-73
2023/08/04 02:54:09;;;;;;;16.05;13.30;;;;;;;;;;10202865;28;20045;-73
2023/08/04 02:59:05;;;;;;;18.20;14.27;;;;;;;;;;10222181;28;20052;-73
2023/08/04 03:04:02;;;;;;;16.92;15.05;;;;;;;;;;10201745;28;20061;-74
2023/08/04 03:08:58;;;;;;;17.70;16.13;;;;;;;;;;10214406;28;20060;-74
2023/08/04 03:13:54;;;;;;;18.38;16.42;;;;;;;;;;10200787;28;20529;-73
2023/08/04 03:18:51;;;;;;;19.13;16.88;;;;;;;;;;10233011;28;20427;-74
2023/08/04 03:23:47;;;;;;;18.20;16.60;;;;;;;;;;10233770;28;20095;-73
2023/08/04 03:28:43;;;;;;;17.83;16.02;;;;;;;;;;10218096;28;20503;-74
2023/08/04 03:33:39;;;;;;;17.90;16.63;;;;;;;;;;10215655;28;20052;-73
2023/08/04 03:38:36;;;;;;;18.65;17.10;;;;;;;;;;10232154;28;20090;-72
2023/08/04 03:43:32;;;;;;;16.40;14.88;;;;;;;;;;10229271;28;20072;-73
2023/08/04 03:48:28;;;;;;;16.77;14.43;;;;;;;;;;10232777;28;20076;-73
2023/08/04 03:53:25;;;;;;;20.30;16.40;;;;;;;;;;10219634;28;20526;-76
2023/08/04 03:58:21;;;;;;;17.58;15.73;;;;;;;;;;10237482;28;20439;-73
2023/08/04 04:03:17;;;;;;;17.48;14.48;;;;;;;;;;10201180;28;20046;-75
2023/08/04 04:08:14;;;;;;;16.45;14.85;;;;;;;;;;10240569;28;20053;-75
2023/08/04 04:13:10;;;;;;;17.58;16.02;;;;;;;;;;10239750;28;20463;-75
2023/08/04 04:18:06;;;;;;;18.70;17.27;;;;;;;;;;10240165;28;20061;-75
2023/08/04 04:23:03;;;;;;;16.08;14.88;;;;;;;;;;10205402;28;20141;-75
2023/08/04 04:27:59;;;;;;;17.30;15.73;;;;;;;;;;10200410;28;20054;-75
2023/08/04 04:32:55;;;;;;;16.50;15.25;;;;;;;;;;10239741;28;20049;-75
2023/08/04 04:37:52;;;;;;;17.27;15.73;;;;;;;;;;10238804;28;20065;-75
2023/08/04 04:42:48;;;;;;;16.65;15.10;;;;;;;;;;10239314;28;20503;-75
2023/08/04 04:47:44;;;;;;;17.85;16.27;;;;;;;;;;10238567;28;20049;-74
2023/08/04 04:52:40;;;;;;;16.15;14.65;;;;;;;;;;10239318;28;20508;-73
2023/08/04 04:57:40;;;;;;;15.88;14.25;;;;;;;;;;10238416;28;20180;-73
2023/08/04 05:02:36;;;;;;;16.33;14.75;;;;;;;;;;10238994;28;20049;-73
2023/08/04 05:12:44;;;;;;;15.25;13.77;;;;;;;;;;2739724;26;20050;-73
2023/08/04 05:17:40;;;;;;;16.50;15.00;;;;;;;;;;10200760;28;20341;-73
2023/08/04 05:22:37;;;;;;;15.85;14.40;;;;;;;;;;10164874;28;20157;-73
2023/08/04 05:27:52;;;;;;;;;;;;;;;;;;;;;
2023/08/04 05:33:11;;;;;;;16.60;14.93;;;;;;;;;;10224017;28;20049;-73
2023/08/04 05:38:07;;;;;;;14.45;13.15;;;;;;;;;;10277845;28;20072;-73
2023/08/04 05:43:04;;;;;;;15.10;13.57;;;;;;;;;;10197876;28;20046;-73
2023/08/04 05:48:00;;;;;;;13.32;12.00;;;;;;;;;;10277413;28;20694;-73
2023/08/04 05:52:57;;;;;;;12.70;11.60;;;;;;;;;;10197407;28;20169;-73
2023/08/04 06:03:34;;;;;;;13.50;11.48;;;;;;;;;;9496641;26;20141;-73
2023/08/04 06:08:31;;;;;;;14.82;11.30;;;;;;;;;;10193211;28;20057;-72
2023/08/04 06:13:27;;;;;;;14.45;11.52;;;;;;;;;;10184775;28;20494;-73
2023/08/04 06:18:23;;;;;;;13.95;11.57;;;;;;;;;;10210881;28;20096;-73
2023/08/04 06:23:20;;;;;;;12.05;10.85;;;;;;;;;;10197636;28;20061;-73
2023/08/04 06:28:16;;;;;;;12.45;11.20;;;;;;;;;;10217676;28;20462;-73
2023/08/04 06:33:12;;;;;;;11.95;9.27;;;;;;;;;;10219319;28;20061;-73
2023/08/04 06:38:08;;;;;;;11.65;10.27;;;;;;;;;;10274862;28;20426;-72
2023/08/04 06:43:06;;;;;;;10.00;9.10;;;;;;;;;;10230216;28;20054;-73
2023/08/04 06:48:02;;;;;;;9.45;8.55;;;;;;;;;;10275342;28;20049;-73
2023/08/04 06:52:58;;;;;;;10.70;9.70;;;;;;;;;;10213821;28;20058;-72
2023/08/04 06:57:55;;;;;;;9.60;8.82;;;;;;;;;;10272882;28;20057;-73
2023/08/04 07:02:51;;;;;;;12.88;10.30;;;;;;;;;;10208622;28;20042;-73
2023/08/04 07:07:51;;;;;;;13.38;9.52;;;;;;;;;;10270438;28;20099;-73
2023/08/04 07:12:47;;;;;;;10.82;9.32;;;;;;;;;;10193425;28;20049;-73
2023/08/04 07:17:43;;;;;;;10.80;8.60;;;;;;;;;;10192921;28;20656;-73
2023/08/04 07:22:40;;;;;;;10.23;9.32;;;;;;;;;;10193722;28;20137;-74
2023/08/04 07:27:36;;;;;;;12.95;8.77;;;;;;;;;;10226880;28;20053;-73
2023/08/04 07:32:32;;;;;;;9.45;8.75;;;;;;;;;;10192298;28;20475;-73
2023/08/04 07:37:29;;;;;;;9.73;8.77;;;;;;;;;;10204869;28;20571;-73
2023/08/04 07:42:25;;;;;;;11.02;9.30;;;;;;;;;;10198698;28;20046;-73
2023/08/04 07:47:22;;;;;;;8.43;7.60;;;;;;;;;;10267453;28;20679;-73
2023/08/04 07:52:18;;;;;;;10.13;8.23;;;;;;;;;;10213661;28;20053;-75
2023/08/04 07:57:14;;;;;;;8.93;7.90;;;;;;;;;;10261498;28;20049;-74
2023/08/04 08:02:11;;;;;;;7.80;7.00;;;;;;;;;;10220517;28;20050;-73
2023/08/04 08:07:07;;;;;;;14.27;8.02;;;;;;;;;;10258565;28;20114;-73
2023/08/04 08:12:03;;;;;;;7.00;6.30;;;;;;;;;;10194097;28;20065;-73
2023/08/04 08:17:00;;;;;;;6.88;6.28;;;;;;;;;;10238434;28;20141;-73
2023/08/04 08:21:56;;;;;;;7.38;6.75;;;;;;;;;;10232101;28;20064;-73
2023/08/04 08:26:53;;;;;;;8.23;7.43;;;;;;;;;;10206824;28;20575;-73
2023/08/04 08:31:49;;;;;;;7.30;6.70;;;;;;;;;;10190926;28;20419;-73
2023/08/04 08:36:47;;;;;;;8.80;7.43;;;;;;;;;;10191389;28;20062;-75
2023/08/04 08:41:43;;;;;;;10.68;9.68;;;;;;;;;;10191941;28;20054;-74
2023/08/04 08:46:39;;;;;;;10.85;9.65;;;;;;;;;;10256571;28;20128;-73
2023/08/04 08:51:37;;;;;;;11.25;10.45;;;;;;;;;;10270756;28;20526;-73
2023/08/04 08:56:34;;;;;;;11.50;10.30;;;;;;;;;;10255812;28;20057;-73
2023/08/04 09:01:30;;;;;;;11.57;10.77;;;;;;;;;;10238675;28;20108;-73
2023/08/04 09:06:28;;;;;;;11.23;10.43;;;;;;;;;;10254336;28;20053;-73
2023/08/04 09:11:32;;;;;;;11.10;10.30;;;;;;;;;;10248407;28;20104;-73
2023/08/04 09:16:36;;;;;;;9.48;8.68;;;;;;;;;;10266093;28;20099;-73
2023/08/04 09:21:33;;;;;;;9.65;8.75;;;;;;;;;;10199854;28;20058;-73
2023/08/04 09:26:40;;;;;;;9.18;8.48;;;;;;;;;;10233423;28;20512;-73
2023/08/04 09:31:40;;;;;;;9.00;8.30;;;;;;;;;;10197306;28;20511;-73
2023/08/04 09:36:46;;;;;;;7.60;7.10;;;;;;;;;;10238524;28;20533;-74
2023/08/04 09:41:43;;;;;;;8.18;7.57;;;;;;;;;;10268976;28;20127;-73
2023/08/04 09:46:52;;;;;;;7.10;6.50;;;;;;;;;;10266913;28;20049;-73
2023/08/04 09:51:50;;;;;;;7.32;6.63;;;;;;;;;;10266869;28;20065;-73
2023/08/04 09:56:49;;;;;;;6.85;6.25;;;;;;;;;;10267176;28;20093;-73
2023/08/04 10:01:45;;;;;;;7.75;6.70;;;;;;;;;;10250309;28;20084;-74
2023/08/04 10:06:43;;;;;;;7.30;6.57;;;;;;;;;;10238014;28;20599;-72
2023/08/04 10:11:39;;;;;;;6.80;6.22;;;;;;;;;;10222433;28;20112;-73
2023/08/04 10:16:38;;;;;;;7.10;6.40;;;;;;;;;;10253889;28;20065;-72
2023/08/04 10:21:36;;;;;;;7.85;7.20;;;;;;;;;;10235857;28;20060;-72
2023/08/04 10:26:45;;;;;;;7.63;7.03;;;;;;;;;;10257903;28;20065;-72
2023/08/04 10:31:41;;;;;;;7.90;7.20;;;;;;;;;;10217995;28;20532;-73
2023/08/04 10:36:56;;;;;;;8.20;7.40;;;;;;;;;;10228100;28;20053;-73
2023/08/04 10:41:52;;;;;;;7.50;6.88;;;;;;;;;;10194581;28;20083;-73
2023/08/04 10:46:49;;;;;;;6.90;6.20;;;;;;;;;;10188836;28;20088;-73
2023/08/04 10:51:46;;;;;;;7.20;6.60;;;;;;;;;;10176897;28;20095;-73
2023/08/04 10:56:45;;;;;;;6.50;5.95;;;;;;;;;;10262282;28;20049;-73
2023/08/04 11:01:41;;;;;;;6.47;5.75;;;;;;;;;;10255229;28;20046;-74
2023/08/04 11:06:37;;;;;;;8.88;6.85;;;;;;;;;;10251301;28;20045;-74
2023/08/04 11:11:34;;;;;;;6.80;6.20;;;;;;;;;;10250183;28;20061;-73
2023/08/04 11:16:32;;;;;;;8.63;6.28;;;;;;;;;;10262292;28;20055;-73
2023/08/04 11:21:29;;;;;;;6.90;6.30;;;;;;;;;;10200768;28;20216;-73
2023/08/04 11:26:26;;;;;;;6.90;6.15;;;;;;;;;;10219600;28;20107;-73
2023/08/04 11:31:23;;;;;;;9.05;5.97;;;;;;;;;;10193324;28;20045;-74
2023/08/04 11:36:19;;;;;;;6.22;5.57;;;;;;;;;;10217736;28;20568;-73
2023/08/04 11:41:16;;;;;;;7.38;6.35;;;;;;;;;;10193254;28;20133;-73
2023/08/04 11:46:13;;;;;;;7.13;6.43;;;;;;;;;;10250520;28;20183;-74
2023/08/04 11:51:09;;;;;;;6.68;6.07;;;;;;;;;;10273653;28;20529;-73
2023/08/04 11:56:07;;;;;;;8.05;6.20;;;;;;;;;;10257996;28;20135;-72
2023/08/04 12:01:27;;;;;;;10.02;6.45;;;;;;;;;;10256705;28;20065;-74
2023/08/04 12:06:24;;;;;;;7.47;6.70;;;;;;;;;;10241821;28;20430;-73
2023/08/04 12:11:22;;;;;;;8.10;7.40;;;;;;;;;;10227184;28;20477;-73
2023/08/04 12:16:19;;;;;;;8.95;7.63;;;;;;;;;;10228397;28;20136;-73
2023/08/04 12:21:18;;;;;;;10.10;8.50;;;;;;;;;;10233494;28;20056;-73
2023/08/04 12:26:15;;;;;;;9.43;8.63;;;;;;;;;;10199278;28;20054;-73
2023/08/04 12:31:11;;;;;;;7.57;6.95;;;;;;;;;;10239752;28;20056;-73
2023/08/04 12:36:11;;;;;;;8.25;7.32;;;;;;;;;;10245375;28;20045;-73
2023/08/04 12:41:09;;;;;;;8.43;7.63;;;;;;;;;;10240045;28;20629;-73
2023/08/04 12:46:05;;;;;;;7.38;6.75;;;;;;;;;;10260904;28;20071;-73
2023/08/04 12:51:02;;;;;;;8.48;7.28;;;;;;;;;;10199333;28;20514;-74
2023/08/04 12:55:58;;;;;;;7.50;6.90;;;;;;;;;;10209490;28;20054;-73
2023/08/04 13:00:54;;;;;;;6.65;6.05;;;;;;;;;;10198412;28;20050;-73
2023/08/04 13:05:50;;;;;;;6.78;6.20;;;;;;;;;;10243766;28;20511;-74
2023/08/04 13:10:47;;;;;;;7.30;6.68;;;;;;;;;;10274171;28;20057;-73
2023/08/04 13:15:44;;;;;;;9.68;6.25;;;;;;;;;;10242294;28;20049;-73
2023/08/04 13:20:41;;;;;;;7.05;6.38;;;;;;;;;;10262080;28;20305;-73
2023/08/04 13:25:38;;;;;;;5.78;5.20;;;;;;;;;;10240111;28;20404;-74
2023/08/04 13:30:34;;;;;;;7.00;6.13;;;;;;;;;;10223864;28;20050;-73
2023/08/04 13:35:30;;;;;;;8.38;6.13;;;;;;;;;;10238012;28;20048;-73
2023/08/04 13:40:27;;;;;;;8.00;6.10;;;;;;;;;;10242036;28;20084;-73
2023/08/04 13:45:23;;;;;;;6.70;6.05;;;;;;;;;;10249872;28;20464;-74
2023/08/04 13:50:20;;;;;;;6.78;6.07;;;;;;;;;;10196700;28;20499;-74
2023/08/04 13:55:16;;;;;;;10.60;6.85;;;;;;;;;;10235396;28;20045;-74
2023/08/04 14:00:12;;;;;;;7.25;6.40;;;;;;;;;;10277186;28;20049;-74
2023/08/04 14:05:10;;;;;;;9.95;6.57;;;;;;;;;;10256984;28;20128;-74
2023/08/04 14:10:07;;;;;;;8.18;6.65;;;;;;;;;;10276326;28;20462;-74
2023/08/04 14:15:04;;;;;;;7.13;6.43;;;;;;;;;;10240159;28;20569;-74
2023/08/04 14:20:03;;;;;;;6.80;6.18;;;;;;;;;;10269200;28;20093;-73
2023/08/04 14:25:00;;;;;;;6.97;5.93;;;;;;;;;;10227698;28;20049;-73
2023/08/04 14:29:56;;;;;;;6.73;6.10;;;;;;;;;;10245683;28;20112;-73
2023/08/04 14:34:53;;;;;;;7.78;6.45;;;;;;;;;;10224519;28;20113;-73
2023/08/04 14:39:49;;;;;;;6.57;5.97;;;;;;;;;;10205549;28;20049;-73
2023/08/04 14:44:47;;;;;;;7.50;6.32;;;;;;;;;;10205450;28;20498;-73
2023/08/04 14:49:43;;;;;;;6.57;5.95;;;;;;;;;;10238960;28;20064;-73
2023/08/04 14:54:40;;;;;;;7.18;6.40;;;;;;;;;;10221287;28;20057;-73
2023/08/04 14:59:36;;;;;;;8.50;6.32;;;;;;;;;;10193704;28;20050;-73
2023/08/04 15:04:32;;;;;;;8.27;5.90;;;;;;;;;;10218521;28;20049;-73
2023/08/04 15:09:29;;;;;;;7.70;6.90;;;;;;;;;;10240501;28;20041;-73
2023/08/04 15:14:26;;;;;;;6.25;5.63;;;;;;;;;;10198582;28;20103;-73
2023/08/04 15:19:22;;;;;;;7.03;6.35;;;;;;;;;;10248464;28;20198;-73
2023/08/04 15:24:19;;;;;;;6.55;5.60;;;;;;;;;;10214621;28;20097;-73
2023/08/04 15:29:15;;;;;;;7.05;5.82;;;;;;;;;;10242788;28;20652;-73
2023/08/04 15:34:11;;;;;;;6.45;5.88;;;;;;;;;;10242922;28;20053;-74
2023/08/04 15:39:08;;;;;;;7.45;5.60;;;;;;;;;;10242701;28;20049;-73
2023/08/04 15:44:04;;;;;;;6.93;6.30;;;;;;;;;;10215606;28;20136;-74
2023/08/04 15:49:00;;;;;;;6.40;5.80;;;;;;;;;;10232819;28;20049;-73
2023/08/04 15:53:56;;;;;;;7.65;5.43;;;;;;;;;;10244052;28;20098;-75
2023/08/04 15:58:53;;;;;;;6.20;5.68;;;;;;;;;;10281668;28;20057;-74
2023/08/04 16:03:49;;;;;;;6.70;6.00;;;;;;;;;;10235798;28;20646;-75
2023/08/04 16:08:50;;;;;;;6.40;5.80;;;;;;;;;;10200458;28;20057;-75
2023/08/04 16:13:46;;;;;;;6.68;6.00;;;;;;;;;;10212312;28;20400;-74
2023/08/04 16:18:43;;;;;;;7.63;5.97;;;;;;;;;;10281043;28;20491;-72
2023/08/04 16:23:39;;;;;;;5.93;5.43;;;;;;;;;;10242830;28;20560;-73
2023/08/04 16:28:35;;;;;;;6.05;5.55;;;;;;;;;;10280511;28;20049;-73
2023/08/04 16:33:32;;;;;;;6.03;5.43;;;;;;;;;;10232443;28;20045;-73
2023/08/04 16:38:28;;;;;;;6.72;5.70;;;;;;;;;;10275846;28;20049;-74
2023/08/04 16:43:25;;;;;;;7.13;5.65;;;;;;;;;;10205483;28;20530;-72
2023/08/04 16:48:21;;;;;;;6.45;5.07;;;;;;;;;;10228008;28;20108;-72
2023/08/04 16:53:17;;;;;;;5.95;5.45;;;;;;;;;;10199017;28;20103;-72
2023/08/04 16:58:14;;;;;;;6.07;5.47;;;;;;;;;;10198815;28;20054;-72
2023/08/04 17:03:13;;;;;;;7.47;5.63;;;;;;;;;;10197858;28;20057;-73
2023/08/04 17:08:09;;;;;;;7.38;5.90;;;;;;;;;;10197991;28;20512;-72
2023/08/04 17:13:06;;;;;;;6.43;5.78;;;;;;;;;;10180968;28;20053;-73
2023/08/04 17:18:02;;;;;;;6.40;5.80;;;;;;;;;;10180844;28;20096;-72
2023/08/04 17:22:59;;;;;;;7.15;5.68;;;;;;;;;;10197967;28;20144;-73
2023/08/04 17:27:55;;;;;;;6.90;6.03;;;;;;;;;;10197427;28;20124;-72
2023/08/04 17:32:51;;;;;;;8.95;6.38;;;;;;;;;;10197329;28;20531;-75
2023/08/04 17:37:48;;;;;;;8.32;6.07;;;;;;;;;;10275243;28;20041;-74
2023/08/04 17:42:44;;;;;;;8.80;5.30;;;;;;;;;;10224734;28;20053;-74
2023/08/04 17:47:41;;;;;;;6.97;6.28;;;;;;;;;;10273274;28;20107;-73
2023/08/04 17:52:37;;;;;;;6.13;5.55;;;;;;;;;;10197705;28;20068;-74
2023/08/04 17:57:33;;;;;;;6.22;5.20;;;;;;;;;;10239164;28;20057;-74
2023/08/04 18:02:32;;;;;;;9.52;6.85;;;;;;;;;;10196560;28;20049;-74
2023/08/04 18:07:28;;;;;;;8.25;7.45;;;;;;;;;;10216905;28;20124;-74
2023/08/04 18:12:24;;;;;;;7.38;6.43;;;;;;;;;;10196505;28;20070;-74
2023/08/04 18:17:20;;;;;;;6.88;5.75;;;;;;;;;;10212784;28;20069;-74
2023/08/04 18:22:18;;;;;;;6.68;5.93;;;;;;;;;;10195666;28;20522;-73
2023/08/04 18:27:14;;;;;;;8.27;5.88;;;;;;;;;;10195317;28;20428;-74
2023/08/04 18:32:10;;;;;;;6.78;5.88;;;;;;;;;;10195670;28;20054;-73
2023/08/04 18:37:10;;;;;;;7.60;5.93;;;;;;;;;;10194886;28;20045;-74
2023/08/04 18:42:06;;;;;;;6.35;5.35;;;;;;;;;;10194896;28;20054;-74
2023/08/04 18:47:02;;;;;;;6.03;5.45;;;;;;;;;;10259956;28;20454;-74
2023/08/04 18:51:58;;;;;;;6.38;5.78;;;;;;;;;;10238139;28;20517;-74
2023/08/04 18:56:55;;;;;;;6.93;5.60;;;;;;;;;;10258050;28;20056;-74
2023/08/04 19:01:51;;;;;;;6.20;5.63;;;;;;;;;;10240540;28;20077;-74
2023/08/04 19:06:47;;;;;;;9.25;5.60;;;;;;;;;;10224683;28;20432;-74
2023/08/04 19:11:44;;;;;;;8.00;5.75;;;;;;;;;;10194264;28;20449;-73
2023/08/04 19:16:40;;;;;;;8.05;6.40;;;;;;;;;;10196597;28;20057;-74
2023/08/04 19:21:37;;;;;;;6.45;5.38;;;;;;;;;;10193633;28;20054;-74
2023/08/04 19:26:33;;;;;;;7.50;6.53;;;;;;;;;;10255888;28;20076;-74
2023/08/04 19:31:29;;;;;;;7.47;6.15;;;;;;;;;;10273711;28;20107;-74
2023/08/04 19:36:26;;;;;;;6.90;6.00;;;;;;;;;;10250858;28;20138;-74
2023/08/04 19:41:22;;;;;;;9.43;6.75;;;;;;;;;;10271759;28;20090;-74
2023/08/04 19:46:21;;;;;;;8.15;5.88;;;;;;;;;;10245869;28;20084;-73
2023/08/04 19:51:17;;;;;;;10.07;6.70;;;;;;;;;;10270852;28;20127;-74
2023/08/04 19:56:14;;;;;;;8.38;6.10;;;;;;;;;;10232573;28;20061;-74
2023/08/04 20:01:11;;;;;;;7.07;5.90;;;;;;;;;;10212526;28;20534;-74
2023/08/04 20:06:08;;;;;;;10.23;6.78;;;;;;;;;;10192326;28;20046;-74
2023/08/04 20:11:05;;;;;;;12.02;6.57;;;;;;;;;;10224436;28;22008;-74
2023/08/04 20:16:06;;;;;;;9.50;6.97;;;;;;;;;;10254638;28;20064;-74
2023/08/04 20:21:03;;;;;;;9.70;7.78;;;;;;;;;;10232958;28;20132;-74
2023/08/04 20:26:00;;;;;;;11.13;7.32;;;;;;;;;;10230329;28;20042;-74
2023/08/04 20:30:57;;;;;;;7.97;6.68;;;;;;;;;;10191753;28;20042;-74
2023/08/04 20:36:03;;;;;;;7.47;6.65;;;;;;;;;;10193920;28;20050;-75
2023/08/04 20:41:01;;;;;;;14.75;8.70;;;;;;;;;;10198417;28;20046;-74
2023/08/04 20:45:58;;;;;;;11.70;6.13;;;;;;;;;;10182169;28;20056;-74
2023/08/04 20:50:54;;;;;;;13.98;7.10;;;;;;;;;;10199377;28;20056;-74
2023/08/04 20:55:52;;;;;;;11.25;7.18;;;;;;;;;;10199440;28;20439;-74
2023/08/04 21:00:49;;;;;;;14.48;7.95;;;;;;;;;;10198622;28;20058;-74
2023/08/04 21:05:45;;;;;;;13.35;8.10;;;;;;;;;;10197556;28;20042;-74
2023/08/04 21:10:45;;;;;;;12.50;7.53;;;;;;;;;;10230685;28;20495;-74
2023/08/04 21:15:41;;;;;;;8.02;6.18;;;;;;;;;;10250157;28;20049;-74
2023/08/04 21:20:37;;;;;;;10.68;7.15;;;;;;;;;;10238291;28;20045;-74
2023/08/04 21:25:35;;;;;;;13.10;6.80;;;;;;;;;;10220501;28;20054;-74
2023/08/04 21:30:34;;;;;;;12.10;7.60;;;;;;;;;;10180667;28;20562;-74
2023/08/04 21:35:31;;;;;;;10.98;7.22;;;;;;;;;;10197718;28;20391;-74
2023/08/04 21:40:27;;;;;;;9.40;7.25;;;;;;;;;;10196846;28;20050;-74
2023/08/04 21:45:27;;;;;;;9.18;6.80;;;;;;;;;;10197112;28;20060;-74
2023/08/04 21:50:23;;;;;;;8.05;5.97;;;;;;;;;;10195606;28;20050;-74
2023/08/04 21:55:19;;;;;;;8.80;6.57;;;;;;;;;;10234250;28;20045;-74
2023/08/04 22:00:22;;;;;;;9.32;5.95;;;;;;;;;;10216404;28;20049;-74
2023/08/04 22:05:18;;;;;;;;;;;;;;;;;;10196705;28;20061;-74
2023/08/04 22:10:14;;;;;;;11.90;7.28;;;;;;;;;;10196326;28;20283;-74
2023/08/04 22:15:11;;;;;;;9.73;7.20;;;;;;;;;;10195140;28;20049;-74
2023/08/04 22:20:07;;;;;;;8.30;7.53;;;;;;;;;;10195427;28;20058;-74
2023/08/04 22:25:04;;;;;;;9.93;8.15;;;;;;;;;;10228579;28;20423;-74
2023/08/04 22:30:00;;;;;;;12.63;8.77;;;;;;;;;;10277228;28;20517;-74
2023/08/04 22:34:57;;;;;;;10.82;7.38;;;;;;;;;;10272512;28;20064;-74
2023/08/04 22:39:53;;;;;;;16.58;7.50;;;;;;;;;;10275713;28;20728;-74
2023/08/04 22:44:49;;;;;;;12.40;8.40;;;;;;;;;;10261191;28;20583;-74
2023/08/04 22:49:46;;;;;;;8.93;6.47;;;;;;;;;;10275232;28;20057;-74
2023/08/04 22:54:42;;;;;;;13.18;8.02;;;;;;;;;;10239982;28;20052;-74
2023/08/04 22:59:38;;;;;;;11.23;7.35;;;;;;;;;;10274538;28;20048;-74
2023/08/04 23:04:35;;;;;;;7.93;7.07;;;;;;;;;;10220893;28;20081;-75
2023/08/04 23:09:31;;;;;;;9.00;7.82;;;;;;;;;;10247861;28;20413;-74
2023/08/04 23:14:27;;;;;;;8.65;7.78;;;;;;;;;;10217205;28;20217;-73
2023/08/04 23:19:23;;;;;;;8.95;7.85;;;;;;;;;;10224170;28;20439;-73
2023/08/04 23:24:20;;;;;;;10.48;8.63;;;;;;;;;;10214411;28;20581;-72
2023/08/04 23:29:19;;;;;;;12.07;9.18;;;;;;;;;;10214843;28;20385;-73
2023/08/04 23:34:16;;;;;;;8.98;7.88;;;;;;;;;;10196192;28;20095;-73
2023/08/04 23:39:13;;;;;;;10.15;8.38;;;;;;;;;;10193852;28;20060;-73
2023/08/04 23:44:10;;;;;;;9.93;8.82;;;;;;;;;;10193011;28;20070;-73
2023/08/04 23:49:06;;;;;;;9.73;8.57;;;;;;;;;;10192870;28;20463;-72
2023/08/04 23:54:02;;;;;;;10.63;8.88;;;;;;;;;;10208985;28;20056;-72
2023/08/04 23:58:59;;;;;;;10.05;9.05;;;;;;;;;;10272888;28;20055;-72
